sensor_id;sensor_type;location;lat;lon;timestamp;P1;durP1;ratioP1;P2;durP2;ratioP2
3543;SDS011;1786;52.870;9.578;2024-03-07T00:01:39;13.20;;;8.77;;
3543;SDS011;1786;52.870;9.578;2024-03-07T00:04:05;11.90;;;8.27;;
3543;SDS011;1786;52.870;9.578;2024-03-07T00:06:32;13.07;;;8.30;;
3543;SDS011;1786;52.870;9.578;2024-03-07T00:08:59;13.33;;;8.83;;
3543;SDS011;1786;52.870;9.578;2024-03-07T00:11:26;9.37;;;8.00;;
3543;SDS011;1786;52.870;9.578;2024-03-07T00:13:55;8.70;;;7.70;;
3543;SDS011;1786;52.870;9.578;2024-03-07T00:16:21;13.80;;;8.30;;
3543;SDS011;1786;52.870;9.578;2024-03-07T00:18:49;9.97;;;8.87;;
3543;SDS011;1786;52.870;9.578;2024-03-07T00:21:15;11.13;;;7.50;;
3543;SDS011;1786;52.870;9.578;2024-03-07T00:23:42;10.00;;;8.80;;
3543;SDS011;1786;52.870;9.578;2024-03-07T00:26:10;12.67;;;8.43;;
3543;SDS011;1786;52.870;9.578;2024-03-07T00:28:37;9.23;;;7.87;;
3543;SDS011;1786;52.870;9.578;2024-03-07T00:31:06;10.60;;;8.77;;
3543;SDS011;1786;52.870;9.578;2024-03-07T00:33:35;13.50;;;7.80;;
3543;SDS011;1786;52.870;9.578;2024-03-07T00:36:21;10.00;;;8.47;;
3543;SDS011;1786;52.870;9.578;2024-03-07T00:38:52;10.80;;;8.10;;
3543;SDS011;1786;52.870;9.578;2024-03-07T00:41:19;9.57;;;8.10;;
3543;SDS011;1786;52.870;9.578;2024-03-07T00:43:47;18.77;;;8.77;;
3543;SDS011;1786;52.870;9.578;2024-03-07T00:46:13;11.87;;;8.43;;
3543;SDS011;1786;52.870;9.578;2024-03-07T00:48:40;8.83;;;7.43;;
3543;SDS011;1786;52.870;9.578;2024-03-07T00:51:07;10.43;;;7.80;;
3543;SDS011;1786;52.870;9.578;2024-03-07T00:53:35;11.50;;;8.63;;
3543;SDS011;1786;52.870;9.578;2024-03-07T00:56:02;8.63;;;6.80;;
3543;SDS011;1786;52.870;9.578;2024-03-07T00:58:29;12.40;;;8.47;;
3543;SDS011;1786;52.870;9.578;2024-03-07T01:00:56;13.07;;;8.27;;
3543;SDS011;1786;52.870;9.578;2024-03-07T01:03:22;15.10;;;9.10;;
3543;SDS011;1786;52.870;9.578;2024-03-07T01:05:50;12.93;;;8.53;;
3543;SDS011;1786;52.870;9.578;2024-03-07T01:08:17;15.67;;;10.30;;
3543;SDS011;1786;52.870;9.578;2024-03-07T01:10:43;13.60;;;9.67;;
3543;SDS011;1786;52.870;9.578;2024-03-07T01:13:10;12.23;;;9.30;;
3543;SDS011;1786;52.870;9.578;2024-03-07T01:15:45;17.10;;;9.27;;
3543;SDS011;1786;52.870;9.578;2024-03-07T01:18:12;16.60;;;10.87;;
3543;SDS011;1786;52.870;9.578;2024-03-07T01:20:39;14.57;;;10.10;;
3543;SDS011;1786;52.870;9.578;2024-03-07T01:23:06;15.07;;;10.73;;
3543;SDS011;1786;52.870;9.578;2024-03-07T01:25:34;15.47;;;10.20;;
3543;SDS011;1786;52.870;9.578;2024-03-07T01:28:01;19.70;;;11.07;;
3543;SDS011;1786;52.870;9.578;2024-03-07T01:30:27;15.20;;;10.43;;
3543;SDS011;1786;52.870;9.578;2024-03-07T01:32:54;18.23;;;12.80;;
3543;SDS011;1786;52.870;9.578;2024-03-07T01:35:21;15.30;;;10.43;;
3543;SDS011;1786;52.870;9.578;2024-03-07T01:37:48;18.90;;;12.43;;
3543;SDS011;1786;52.870;9.578;2024-03-07T01:40:14;16.47;;;11.77;;
3543;SDS011;1786;52.870;9.578;2024-03-07T01:42:41;16.13;;;12.10;;
3543;SDS011;1786;52.870;9.578;2024-03-07T01:45:08;19.30;;;12.30;;
3543;SDS011;1786;52.870;9.578;2024-03-07T01:47:36;18.20;;;11.40;;
3543;SDS011;1786;52.870;9.578;2024-03-07T01:50:03;22.40;;;13.70;;
3543;SDS011;1786;52.870;9.578;2024-03-07T01:52:30;20.17;;;13.13;;
3543;SDS011;1786;52.870;9.578;2024-03-07T01:54:57;16.23;;;12.40;;
3543;SDS011;1786;52.870;9.578;2024-03-07T01:57:24;22.27;;;12.73;;
3543;SDS011;1786;52.870;9.578;2024-03-07T01:59:51;23.97;;;14.97;;
3543;SDS011;1786;52.870;9.578;2024-03-07T02:02:18;24.63;;;15.30;;
3543;SDS011;1786;52.870;9.578;2024-03-07T02:04:44;29.07;;;16.60;;
3543;SDS011;1786;52.870;9.578;2024-03-07T02:07:11;59.17;;;12.83;;
3543;SDS011;1786;52.870;9.578;2024-03-07T02:09:38;57.37;;;16.17;;
3543;SDS011;1786;52.870;9.578;2024-03-07T02:12:04;29.13;;;14.23;;
3543;SDS011;1786;52.870;9.578;2024-03-07T02:14:32;46.83;;;16.30;;
3543;SDS011;1786;52.870;9.578;2024-03-07T02:16:58;41.70;;;16.87;;
3543;SDS011;1786;52.870;9.578;2024-03-07T02:19:25;36.83;;;17.17;;
3543;SDS011;1786;52.870;9.578;2024-03-07T02:21:52;37.30;;;18.43;;
3543;SDS011;1786;52.870;9.578;2024-03-07T02:24:18;31.90;;;17.50;;
3543;SDS011;1786;52.870;9.578;2024-03-07T02:26:45;40.37;;;19.40;;
3543;SDS011;1786;52.870;9.578;2024-03-07T02:29:12;57.63;;;18.13;;
3543;SDS011;1786;52.870;9.578;2024-03-07T02:31:38;45.13;;;19.60;;
3543;SDS011;1786;52.870;9.578;2024-03-07T02:34:08;38.77;;;17.87;;
3543;SDS011;1786;52.870;9.578;2024-03-07T02:36:37;71.33;;;19.00;;
3543;SDS011;1786;52.870;9.578;2024-03-07T02:39:03;34.53;;;17.07;;
3543;SDS011;1786;52.870;9.578;2024-03-07T02:41:31;40.47;;;17.57;;
3543;SDS011;1786;52.870;9.578;2024-03-07T02:43:57;33.83;;;15.60;;
3543;SDS011;1786;52.870;9.578;2024-03-07T02:46:24;28.20;;;15.70;;
3543;SDS011;1786;52.870;9.578;2024-03-07T02:48:51;43.23;;;17.47;;
3543;SDS011;1786;52.870;9.578;2024-03-07T02:51:17;30.90;;;16.10;;
3543;SDS011;1786;52.870;9.578;2024-03-07T02:53:44;41.40;;;17.93;;
3543;SDS011;1786;52.870;9.578;2024-03-07T02:56:11;49.93;;;17.13;;
3543;SDS011;1786;52.870;9.578;2024-03-07T02:58:37;56.17;;;17.20;;
3543;SDS011;1786;52.870;9.578;2024-03-07T03:01:05;45.07;;;17.70;;
3543;SDS011;1786;52.870;9.578;2024-03-07T03:03:32;41.17;;;17.07;;
3543;SDS011;1786;52.870;9.578;2024-03-07T03:05:59;35.13;;;18.53;;
3543;SDS011;1786;52.870;9.578;2024-03-07T03:08:26;42.73;;;17.33;;
3543;SDS011;1786;52.870;9.578;2024-03-07T03:10:55;46.37;;;17.87;;
3543;SDS011;1786;52.870;9.578;2024-03-07T03:13:23;57.70;;;18.40;;
3543;SDS011;1786;52.870;9.578;2024-03-07T03:15:51;56.10;;;18.60;;
3543;SDS011;1786;52.870;9.578;2024-03-07T03:18:17;45.57;;;17.77;;
3543;SDS011;1786;52.870;9.578;2024-03-07T03:20:44;47.23;;;19.20;;
3543;SDS011;1786;52.870;9.578;2024-03-07T03:23:14;47.27;;;18.10;;
3543;SDS011;1786;52.870;9.578;2024-03-07T03:25:47;55.37;;;18.70;;
3543;SDS011;1786;52.870;9.578;2024-03-07T03:28:17;43.50;;;17.07;;
3543;SDS011;1786;52.870;9.578;2024-03-07T03:30:46;48.77;;;16.93;;
3543;SDS011;1786;52.870;9.578;2024-03-07T03:33:14;48.40;;;18.53;;
3543;SDS011;1786;52.870;9.578;2024-03-07T03:35:41;38.20;;;18.27;;
3543;SDS011;1786;52.870;9.578;2024-03-07T03:38:08;69.63;;;19.43;;
3543;SDS011;1786;52.870;9.578;2024-03-07T03:40:35;58.77;;;19.90;;
3543;SDS011;1786;52.870;9.578;2024-03-07T03:43:02;49.23;;;18.83;;
3543;SDS011;1786;52.870;9.578;2024-03-07T03:45:29;41.23;;;20.50;;
3543;SDS011;1786;52.870;9.578;2024-03-07T03:47:58;40.47;;;20.17;;
3543;SDS011;1786;52.870;9.578;2024-03-07T03:50:25;37.33;;;18.67;;
3543;SDS011;1786;52.870;9.578;2024-03-07T03:52:52;43.20;;;19.07;;
3543;SDS011;1786;52.870;9.578;2024-03-07T03:55:19;36.60;;;19.03;;
3543;SDS011;1786;52.870;9.578;2024-03-07T03:57:46;39.00;;;19.37;;
3543;SDS011;1786;52.870;9.578;2024-03-07T04:00:13;54.87;;;20.80;;
3543;SDS011;1786;52.870;9.578;2024-03-07T04:02:41;44.90;;;20.20;;
3543;SDS011;1786;52.870;9.578;2024-03-07T04:05:15;48.33;;;20.00;;
3543;SDS011;1786;52.870;9.578;2024-03-07T04:07:43;42.73;;;20.53;;
3543;SDS011;1786;52.870;9.578;2024-03-07T04:10:10;42.63;;;19.60;;
3543;SDS011;1786;52.870;9.578;2024-03-07T04:12:38;42.30;;;19.00;;
3543;SDS011;1786;52.870;9.578;2024-03-07T04:15:07;46.93;;;20.00;;
3543;SDS011;1786;52.870;9.578;2024-03-07T04:17:35;47.83;;;20.57;;
3543;SDS011;1786;52.870;9.578;2024-03-07T04:20:03;45.43;;;20.20;;
3543;SDS011;1786;52.870;9.578;2024-03-07T04:22:33;51.90;;;24.17;;
3543;SDS011;1786;52.870;9.578;2024-03-07T04:25:01;58.97;;;21.33;;
3543;SDS011;1786;52.870;9.578;2024-03-07T04:27:28;44.53;;;20.53;;
3543;SDS011;1786;52.870;9.578;2024-03-07T04:29:55;51.80;;;21.37;;
3543;SDS011;1786;52.870;9.578;2024-03-07T04:32:22;43.83;;;21.50;;
3543;SDS011;1786;52.870;9.578;2024-03-07T04:34:49;43.70;;;20.70;;
3543;SDS011;1786;52.870;9.578;2024-03-07T04:37:16;49.53;;;23.03;;
3543;SDS011;1786;52.870;9.578;2024-03-07T04:39:43;39.30;;;21.70;;
3543;SDS011;1786;52.870;9.578;2024-03-07T04:42:09;50.07;;;21.10;;
3543;SDS011;1786;52.870;9.578;2024-03-07T04:44:36;47.03;;;22.60;;
3543;SDS011;1786;52.870;9.578;2024-03-07T04:47:03;41.07;;;20.83;;
3543;SDS011;1786;52.870;9.578;2024-03-07T04:49:30;63.33;;;22.53;;
3543;SDS011;1786;52.870;9.578;2024-03-07T04:51:59;41.53;;;21.80;;
3543;SDS011;1786;52.870;9.578;2024-03-07T04:54:27;48.70;;;21.53;;
3543;SDS011;1786;52.870;9.578;2024-03-07T04:56:55;57.83;;;23.60;;
3543;SDS011;1786;52.870;9.578;2024-03-07T04:59:22;47.03;;;23.40;;
3543;SDS011;1786;52.870;9.578;2024-03-07T05:01:49;52.00;;;24.53;;
3543;SDS011;1786;52.870;9.578;2024-03-07T05:04:17;51.87;;;22.40;;
3543;SDS011;1786;52.870;9.578;2024-03-07T05:06:44;66.20;;;23.97;;
3543;SDS011;1786;52.870;9.578;2024-03-07T05:09:14;57.03;;;25.43;;
3543;SDS011;1786;52.870;9.578;2024-03-07T05:11:51;61.40;;;24.20;;
3543;SDS011;1786;52.870;9.578;2024-03-07T05:14:19;49.43;;;23.23;;
3543;SDS011;1786;52.870;9.578;2024-03-07T05:16:46;85.07;;;23.70;;
3543;SDS011;1786;52.870;9.578;2024-03-07T05:19:31;63.47;;;22.27;;
3543;SDS011;1786;52.870;9.578;2024-03-07T05:21:59;59.80;;;24.57;;
3543;SDS011;1786;52.870;9.578;2024-03-07T05:24:26;54.93;;;22.93;;
3543;SDS011;1786;52.870;9.578;2024-03-07T05:26:53;64.07;;;25.07;;
3543;SDS011;1786;52.870;9.578;2024-03-07T05:29:20;53.67;;;22.60;;
3543;SDS011;1786;52.870;9.578;2024-03-07T05:31:47;62.17;;;25.13;;
3543;SDS011;1786;52.870;9.578;2024-03-07T05:34:14;55.23;;;22.43;;
3543;SDS011;1786;52.870;9.578;2024-03-07T05:36:45;62.10;;;24.50;;
3543;SDS011;1786;52.870;9.578;2024-03-07T05:39:13;64.83;;;23.93;;
3543;SDS011;1786;52.870;9.578;2024-03-07T05:41:41;65.60;;;24.23;;
3543;SDS011;1786;52.870;9.578;2024-03-07T05:44:09;64.50;;;22.67;;
3543;SDS011;1786;52.870;9.578;2024-03-07T05:46:36;55.30;;;22.37;;
3543;SDS011;1786;52.870;9.578;2024-03-07T05:49:07;56.47;;;22.90;;
3543;SDS011;1786;52.870;9.578;2024-03-07T05:51:34;67.37;;;25.37;;
3543;SDS011;1786;52.870;9.578;2024-03-07T05:54:02;58.83;;;24.67;;
3543;SDS011;1786;52.870;9.578;2024-03-07T05:56:33;60.93;;;23.90;;
3543;SDS011;1786;52.870;9.578;2024-03-07T05:59:03;57.70;;;22.50;;
3543;SDS011;1786;52.870;9.578;2024-03-07T06:01:31;55.20;;;23.70;;
3543;SDS011;1786;52.870;9.578;2024-03-07T06:04:01;53.77;;;22.80;;
3543;SDS011;1786;52.870;9.578;2024-03-07T06:06:28;50.30;;;21.13;;
3543;SDS011;1786;52.870;9.578;2024-03-07T06:08:58;66.90;;;24.40;;
3543;SDS011;1786;52.870;9.578;2024-03-07T06:11:26;53.00;;;22.50;;
3543;SDS011;1786;52.870;9.578;2024-03-07T06:13:53;51.33;;;23.00;;
3543;SDS011;1786;52.870;9.578;2024-03-07T06:16:20;67.87;;;25.87;;
3543;SDS011;1786;52.870;9.578;2024-03-07T06:18:47;66.67;;;25.70;;
3543;SDS011;1786;52.870;9.578;2024-03-07T06:21:13;63.03;;;24.67;;
3543;SDS011;1786;52.870;9.578;2024-03-07T06:23:40;57.20;;;23.70;;
3543;SDS011;1786;52.870;9.578;2024-03-07T06:26:07;60.00;;;22.97;;
3543;SDS011;1786;52.870;9.578;2024-03-07T06:28:39;57.47;;;22.67;;
3543;SDS011;1786;52.870;9.578;2024-03-07T06:31:06;57.97;;;25.23;;
3543;SDS011;1786;52.870;9.578;2024-03-07T06:33:34;62.20;;;23.73;;
3543;SDS011;1786;52.870;9.578;2024-03-07T06:36:01;48.53;;;22.27;;
3543;SDS011;1786;52.870;9.578;2024-03-07T06:38:27;56.40;;;24.90;;
3543;SDS011;1786;52.870;9.578;2024-03-07T06:40:54;58.77;;;22.30;;
3543;SDS011;1786;52.870;9.578;2024-03-07T06:43:21;54.60;;;21.37;;
3543;SDS011;1786;52.870;9.578;2024-03-07T06:45:48;57.03;;;22.50;;
3543;SDS011;1786;52.870;9.578;2024-03-07T06:48:16;49.37;;;21.87;;
3543;SDS011;1786;52.870;9.578;2024-03-07T06:50:44;46.17;;;19.23;;
3543;SDS011;1786;52.870;9.578;2024-03-07T06:53:11;54.77;;;23.03;;
3543;SDS011;1786;52.870;9.578;2024-03-07T06:55:38;42.50;;;18.97;;
3543;SDS011;1786;52.870;9.578;2024-03-07T06:58:05;46.73;;;21.83;;
3543;SDS011;1786;52.870;9.578;2024-03-07T07:00:32;43.60;;;20.07;;
3543;SDS011;1786;52.870;9.578;2024-03-07T07:03:02;44.70;;;18.60;;
3543;SDS011;1786;52.870;9.578;2024-03-07T07:05:32;44.70;;;21.40;;
3543;SDS011;1786;52.870;9.578;2024-03-07T07:08:00;47.00;;;20.27;;
3543;SDS011;1786;52.870;9.578;2024-03-07T07:10:27;41.60;;;19.23;;
3543;SDS011;1786;52.870;9.578;2024-03-07T07:12:54;42.17;;;17.83;;
3543;SDS011;1786;52.870;9.578;2024-03-07T07:15:21;37.70;;;17.87;;
3543;SDS011;1786;52.870;9.578;2024-03-07T07:17:48;40.40;;;17.20;;
3543;SDS011;1786;52.870;9.578;2024-03-07T07:20:16;31.97;;;16.00;;
3543;SDS011;1786;52.870;9.578;2024-03-07T07:22:47;32.67;;;17.97;;
3543;SDS011;1786;52.870;9.578;2024-03-07T07:25:14;43.60;;;16.50;;
3543;SDS011;1786;52.870;9.578;2024-03-07T07:30:09;33.43;;;18.10;;
3543;SDS011;1786;52.870;9.578;2024-03-07T07:32:37;33.53;;;15.93;;
3543;SDS011;1786;52.870;9.578;2024-03-07T07:35:04;35.93;;;15.97;;
3543;SDS011;1786;52.870;9.578;2024-03-07T07:37:36;29.33;;;16.40;;
3543;SDS011;1786;52.870;9.578;2024-03-07T07:40:09;27.50;;;16.07;;
3543;SDS011;1786;52.870;9.578;2024-03-07T07:42:41;27.00;;;13.90;;
3543;SDS011;1786;52.870;9.578;2024-03-07T07:45:09;27.03;;;13.57;;
3543;SDS011;1786;52.870;9.578;2024-03-07T07:47:39;25.00;;;13.00;;
3543;SDS011;1786;52.870;9.578;2024-03-07T07:50:08;25.80;;;15.50;;
3543;SDS011;1786;52.870;9.578;2024-03-07T07:52:40;21.07;;;12.17;;
3543;SDS011;1786;52.870;9.578;2024-03-07T07:55:08;21.90;;;12.53;;
3543;SDS011;1786;52.870;9.578;2024-03-07T07:57:41;20.67;;;11.93;;
3543;SDS011;1786;52.870;9.578;2024-03-07T08:00:13;26.40;;;11.00;;
3543;SDS011;1786;52.870;9.578;2024-03-07T08:02:52;25.83;;;12.20;;
3543;SDS011;1786;52.870;9.578;2024-03-07T08:05:23;19.83;;;11.10;;
3543;SDS011;1786;52.870;9.578;2024-03-07T08:07:55;20.67;;;11.27;;
3543;SDS011;1786;52.870;9.578;2024-03-07T08:10:24;25.30;;;12.63;;
3543;SDS011;1786;52.870;9.578;2024-03-07T08:12:55;24.10;;;11.63;;
3543;SDS011;1786;52.870;9.578;2024-03-07T08:15:22;20.97;;;12.83;;
3543;SDS011;1786;52.870;9.578;2024-03-07T08:17:51;24.07;;;12.13;;
3543;SDS011;1786;52.870;9.578;2024-03-07T08:20:19;21.70;;;12.60;;
3543;SDS011;1786;52.870;9.578;2024-03-07T08:22:49;25.93;;;14.17;;
3543;SDS011;1786;52.870;9.578;2024-03-07T08:25:20;20.40;;;11.97;;
3543;SDS011;1786;52.870;9.578;2024-03-07T08:27:48;22.60;;;13.17;;
3543;SDS011;1786;52.870;9.578;2024-03-07T08:30:16;25.27;;;12.07;;
3543;SDS011;1786;52.870;9.578;2024-03-07T08:32:46;20.27;;;13.13;;
3543;SDS011;1786;52.870;9.578;2024-03-07T08:35:21;26.53;;;14.00;;
3543;SDS011;1786;52.870;9.578;2024-03-07T08:37:49;18.33;;;12.80;;
3543;SDS011;1786;52.870;9.578;2024-03-07T08:40:25;27.63;;;12.30;;
3543;SDS011;1786;52.870;9.578;2024-03-07T08:42:57;21.17;;;12.23;;
3543;SDS011;1786;52.870;9.578;2024-03-07T08:45:25;20.73;;;12.23;;
3543;SDS011;1786;52.870;9.578;2024-03-07T08:47:54;23.20;;;11.77;;
3543;SDS011;1786;52.870;9.578;2024-03-07T08:50:23;22.80;;;12.03;;
3543;SDS011;1786;52.870;9.578;2024-03-07T08:52:50;20.23;;;11.53;;
3543;SDS011;1786;52.870;9.578;2024-03-07T08:55:20;23.13;;;13.70;;
3543;SDS011;1786;52.870;9.578;2024-03-07T08:57:49;19.73;;;10.93;;
3543;SDS011;1786;52.870;9.578;2024-03-07T09:00:16;18.63;;;11.90;;
3543;SDS011;1786;52.870;9.578;2024-03-07T09:02:53;19.90;;;11.10;;
3543;SDS011;1786;52.870;9.578;2024-03-07T09:05:27;19.87;;;10.90;;
3543;SDS011;1786;52.870;9.578;2024-03-07T09:07:54;20.60;;;12.70;;
3543;SDS011;1786;52.870;9.578;2024-03-07T09:10:21;20.13;;;12.67;;
3543;SDS011;1786;52.870;9.578;2024-03-07T09:12:49;19.23;;;12.23;;
3543;SDS011;1786;52.870;9.578;2024-03-07T09:15:18;16.93;;;10.50;;
3543;SDS011;1786;52.870;9.578;2024-03-07T09:17:48;24.20;;;13.27;;
3543;SDS011;1786;52.870;9.578;2024-03-07T09:20:15;23.53;;;13.10;;
3543;SDS011;1786;52.870;9.578;2024-03-07T09:22:42;22.97;;;12.90;;
3543;SDS011;1786;52.870;9.578;2024-03-07T09:25:10;31.27;;;12.20;;
3543;SDS011;1786;52.870;9.578;2024-03-07T09:27:39;27.43;;;12.77;;
3543;SDS011;1786;52.870;9.578;2024-03-07T09:30:07;30.80;;;14.10;;
3543;SDS011;1786;52.870;9.578;2024-03-07T09:32:39;30.23;;;12.77;;
3543;SDS011;1786;52.870;9.578;2024-03-07T09:35:09;25.33;;;13.53;;
3543;SDS011;1786;52.870;9.578;2024-03-07T09:37:40;25.93;;;13.93;;
3543;SDS011;1786;52.870;9.578;2024-03-07T09:40:08;21.33;;;13.33;;
3543;SDS011;1786;52.870;9.578;2024-03-07T09:42:37;24.33;;;13.63;;
3543;SDS011;1786;52.870;9.578;2024-03-07T09:45:10;27.77;;;13.77;;
3543;SDS011;1786;52.870;9.578;2024-03-07T09:47:40;23.43;;;12.47;;
3543;SDS011;1786;52.870;9.578;2024-03-07T09:50:08;28.50;;;12.93;;
3543;SDS011;1786;52.870;9.578;2024-03-07T09:52:35;25.90;;;13.73;;
3543;SDS011;1786;52.870;9.578;2024-03-07T09:55:02;24.20;;;13.53;;
3543;SDS011;1786;52.870;9.578;2024-03-07T09:57:29;22.33;;;12.90;;
3543;SDS011;1786;52.870;9.578;2024-03-07T10:00:00;26.13;;;14.77;;
3543;SDS011;1786;52.870;9.578;2024-03-07T10:02:37;24.30;;;12.83;;
3543;SDS011;1786;52.870;9.578;2024-03-07T10:05:07;28.40;;;13.70;;
3543;SDS011;1786;52.870;9.578;2024-03-07T10:07:42;28.70;;;13.53;;
3543;SDS011;1786;52.870;9.578;2024-03-07T10:10:08;21.77;;;11.20;;
3543;SDS011;1786;52.870;9.578;2024-03-07T10:12:38;28.03;;;13.83;;
3543;SDS011;1786;52.870;9.578;2024-03-07T10:15:05;27.50;;;13.17;;
3543;SDS011;1786;52.870;9.578;2024-03-07T10:17:32;21.23;;;12.50;;
3543;SDS011;1786;52.870;9.578;2024-03-07T10:19:58;23.93;;;13.80;;
3543;SDS011;1786;52.870;9.578;2024-03-07T10:22:27;27.33;;;12.90;;
3543;SDS011;1786;52.870;9.578;2024-03-07T10:24:55;27.90;;;14.27;;
3543;SDS011;1786;52.870;9.578;2024-03-07T10:27:26;29.23;;;13.90;;
3543;SDS011;1786;52.870;9.578;2024-03-07T10:29:54;24.53;;;12.73;;
3543;SDS011;1786;52.870;9.578;2024-03-07T10:32:21;24.00;;;13.37;;
3543;SDS011;1786;52.870;9.578;2024-03-07T10:34:53;30.90;;;16.37;;
3543;SDS011;1786;52.870;9.578;2024-03-07T10:37:21;25.43;;;13.20;;
3543;SDS011;1786;52.870;9.578;2024-03-07T10:39:47;26.47;;;13.73;;
3543;SDS011;1786;52.870;9.578;2024-03-07T10:42:16;23.87;;;12.83;;
3543;SDS011;1786;52.870;9.578;2024-03-07T10:44:46;30.70;;;12.50;;
3543;SDS011;1786;52.870;9.578;2024-03-07T10:47:17;21.50;;;12.77;;
3543;SDS011;1786;52.870;9.578;2024-03-07T10:52:28;23.43;;;11.43;;
3543;SDS011;1786;52.870;9.578;2024-03-07T10:55:08;31.63;;;14.17;;
3543;SDS011;1786;52.870;9.578;2024-03-07T10:57:50;20.43;;;12.40;;
3543;SDS011;1786;52.870;9.578;2024-03-07T11:00:22;21.50;;;12.40;;
3543;SDS011;1786;52.870;9.578;2024-03-07T11:03:10;26.13;;;11.10;;
3543;SDS011;1786;52.870;9.578;2024-03-07T11:05:37;27.10;;;13.97;;
3543;SDS011;1786;52.870;9.578;2024-03-07T11:08:06;27.17;;;13.10;;
3543;SDS011;1786;52.870;9.578;2024-03-07T11:10:40;21.20;;;12.53;;
3543;SDS011;1786;52.870;9.578;2024-03-07T11:13:08;22.80;;;13.40;;
3543;SDS011;1786;52.870;9.578;2024-03-07T11:15:39;19.03;;;11.30;;
3543;SDS011;1786;52.870;9.578;2024-03-07T11:18:09;23.37;;;12.63;;
3543;SDS011;1786;52.870;9.578;2024-03-07T11:20:37;24.27;;;12.47;;
3543;SDS011;1786;52.870;9.578;2024-03-07T11:26:01;21.47;;;11.50;;
3543;SDS011;1786;52.870;9.578;2024-03-07T11:28:35;21.97;;;12.20;;
3543;SDS011;1786;52.870;9.578;2024-03-07T11:31:07;19.80;;;10.97;;
3543;SDS011;1786;52.870;9.578;2024-03-07T11:34:11;19.80;;;11.23;;
3543;SDS011;1786;52.870;9.578;2024-03-07T11:36:42;17.90;;;11.00;;
3543;SDS011;1786;52.870;9.578;2024-03-07T11:42:09;20.10;;;11.17;;
3543;SDS011;1786;52.870;9.578;2024-03-07T11:44:35;26.13;;;12.07;;
3543;SDS011;1786;52.870;9.578;2024-03-07T11:47:06;21.67;;;11.53;;
3543;SDS011;1786;52.870;9.578;2024-03-07T11:49:35;19.90;;;11.27;;
3543;SDS011;1786;52.870;9.578;2024-03-07T11:52:03;17.87;;;10.17;;
3543;SDS011;1786;52.870;9.578;2024-03-07T11:54:39;19.70;;;11.10;;
3543;SDS011;1786;52.870;9.578;2024-03-07T11:57:07;19.93;;;11.33;;
3543;SDS011;1786;52.870;9.578;2024-03-07T11:59:42;23.10;;;11.90;;
3543;SDS011;1786;52.870;9.578;2024-03-07T12:02:13;19.30;;;11.50;;
3543;SDS011;1786;52.870;9.578;2024-03-07T12:04:44;22.67;;;11.97;;
3543;SDS011;1786;52.870;9.578;2024-03-07T12:07:11;22.40;;;10.90;;
3543;SDS011;1786;52.870;9.578;2024-03-07T12:09:38;17.60;;;11.37;;
3543;SDS011;1786;52.870;9.578;2024-03-07T12:12:05;24.70;;;11.93;;
3543;SDS011;1786;52.870;9.578;2024-03-07T12:14:33;22.60;;;11.47;;
3543;SDS011;1786;52.870;9.578;2024-03-07T12:17:01;23.13;;;11.93;;
3543;SDS011;1786;52.870;9.578;2024-03-07T12:19:33;25.60;;;12.67;;
3543;SDS011;1786;52.870;9.578;2024-03-07T12:22:03;24.70;;;12.40;;
3543;SDS011;1786;52.870;9.578;2024-03-07T12:24:30;21.40;;;11.37;;
3543;SDS011;1786;52.870;9.578;2024-03-07T12:27:06;23.93;;;12.40;;
3543;SDS011;1786;52.870;9.578;2024-03-07T12:29:38;25.50;;;12.70;;
3543;SDS011;1786;52.870;9.578;2024-03-07T12:32:06;22.23;;;12.27;;
3543;SDS011;1786;52.870;9.578;2024-03-07T12:34:40;23.53;;;11.90;;
3543;SDS011;1786;52.870;9.578;2024-03-07T12:37:12;23.50;;;13.50;;
3543;SDS011;1786;52.870;9.578;2024-03-07T12:39:43;30.57;;;12.67;;
3543;SDS011;1786;52.870;9.578;2024-03-07T12:42:15;23.30;;;12.60;;
3543;SDS011;1786;52.870;9.578;2024-03-07T12:44:44;24.90;;;12.13;;
3543;SDS011;1786;52.870;9.578;2024-03-07T12:47:12;28.00;;;13.03;;
3543;SDS011;1786;52.870;9.578;2024-03-07T12:49:43;29.97;;;12.77;;
3543;SDS011;1786;52.870;9.578;2024-03-07T12:52:11;29.80;;;13.60;;
3543;SDS011;1786;52.870;9.578;2024-03-07T12:54:41;23.33;;;12.63;;
3543;SDS011;1786;52.870;9.578;2024-03-07T12:57:09;30.20;;;14.07;;
3543;SDS011;1786;52.870;9.578;2024-03-07T12:59:40;23.97;;;12.80;;
3543;SDS011;1786;52.870;9.578;2024-03-07T13:02:11;32.33;;;12.83;;
3543;SDS011;1786;52.870;9.578;2024-03-07T13:04:38;21.73;;;11.17;;
3543;SDS011;1786;52.870;9.578;2024-03-07T13:07:09;22.07;;;12.67;;
3543;SDS011;1786;52.870;9.578;2024-03-07T13:09:37;22.40;;;12.57;;
3543;SDS011;1786;52.870;9.578;2024-03-07T13:12:10;24.20;;;12.40;;
3543;SDS011;1786;52.870;9.578;2024-03-07T13:14:37;24.60;;;13.23;;
3543;SDS011;1786;52.870;9.578;2024-03-07T13:17:04;22.17;;;11.50;;
3543;SDS011;1786;52.870;9.578;2024-03-07T13:19:32;23.97;;;12.63;;
3543;SDS011;1786;52.870;9.578;2024-03-07T13:21:59;23.10;;;12.40;;
3543;SDS011;1786;52.870;9.578;2024-03-07T13:24:27;27.03;;;12.03;;
3543;SDS011;1786;52.870;9.578;2024-03-07T13:26:54;23.83;;;11.57;;
3543;SDS011;1786;52.870;9.578;2024-03-07T13:29:21;21.00;;;12.27;;
3543;SDS011;1786;52.870;9.578;2024-03-07T13:31:51;24.77;;;12.33;;
3543;SDS011;1786;52.870;9.578;2024-03-07T13:34:19;18.93;;;10.83;;
3543;SDS011;1786;52.870;9.578;2024-03-07T13:36:46;20.20;;;12.33;;
3543;SDS011;1786;52.870;9.578;2024-03-07T13:39:12;20.40;;;12.00;;
3543;SDS011;1786;52.870;9.578;2024-03-07T13:41:41;22.10;;;11.97;;
3543;SDS011;1786;52.870;9.578;2024-03-07T13:44:07;23.77;;;12.63;;
3543;SDS011;1786;52.870;9.578;2024-03-07T13:46:34;24.87;;;13.10;;
3543;SDS011;1786;52.870;9.578;2024-03-07T13:49:01;25.13;;;13.17;;
3543;SDS011;1786;52.870;9.578;2024-03-07T13:51:42;25.63;;;12.10;;
3543;SDS011;1786;52.870;9.578;2024-03-07T13:54:17;21.73;;;12.70;;
3543;SDS011;1786;52.870;9.578;2024-03-07T13:57:06;19.30;;;12.70;;
3543;SDS011;1786;52.870;9.578;2024-03-07T14:14:05;19.40;;;12.20;;
3543;SDS011;1786;52.870;9.578;2024-03-07T14:16:50;21.13;;;11.80;;
3543;SDS011;1786;52.870;9.578;2024-03-07T14:19:46;19.23;;;10.90;;
3543;SDS011;1786;52.870;9.578;2024-03-07T14:30:51;22.63;;;10.83;;
3543;SDS011;1786;52.870;9.578;2024-03-07T14:33:29;24.70;;;10.57;;
3543;SDS011;1786;52.870;9.578;2024-03-07T14:39:05;17.70;;;10.37;;
3543;SDS011;1786;52.870;9.578;2024-03-07T14:41:39;16.37;;;11.33;;
3543;SDS011;1786;52.870;9.578;2024-03-07T14:44:11;18.07;;;10.63;;
3543;SDS011;1786;52.870;9.578;2024-03-07T14:46:38;19.90;;;10.33;;
3543;SDS011;1786;52.870;9.578;2024-03-07T14:49:05;16.17;;;10.67;;
3543;SDS011;1786;52.870;9.578;2024-03-07T14:51:31;15.03;;;9.43;;
3543;SDS011;1786;52.870;9.578;2024-03-07T14:54:13;13.80;;;9.97;;
3543;SDS011;1786;52.870;9.578;2024-03-07T14:56:40;16.30;;;9.40;;
3543;SDS011;1786;52.870;9.578;2024-03-07T14:59:07;12.40;;;8.90;;
3543;SDS011;1786;52.870;9.578;2024-03-07T15:01:34;21.33;;;9.70;;
3543;SDS011;1786;52.870;9.578;2024-03-07T15:04:01;16.33;;;10.60;;
3543;SDS011;1786;52.870;9.578;2024-03-07T15:06:30;16.40;;;9.50;;
3543;SDS011;1786;52.870;9.578;2024-03-07T15:08:58;15.07;;;9.40;;
3543;SDS011;1786;52.870;9.578;2024-03-07T15:11:26;16.03;;;10.00;;
3543;SDS011;1786;52.870;9.578;2024-03-07T15:13:58;16.70;;;10.40;;
3543;SDS011;1786;52.870;9.578;2024-03-07T15:16:26;18.23;;;10.17;;
3543;SDS011;1786;52.870;9.578;2024-03-07T15:19:02;17.13;;;9.13;;
3543;SDS011;1786;52.870;9.578;2024-03-07T15:21:28;19.47;;;9.50;;
3543;SDS011;1786;52.870;9.578;2024-03-07T15:23:56;14.27;;;9.37;;
3543;SDS011;1786;52.870;9.578;2024-03-07T15:26:23;14.90;;;10.10;;
3543;SDS011;1786;52.870;9.578;2024-03-07T15:28:51;14.30;;;9.37;;
3543;SDS011;1786;52.870;9.578;2024-03-07T15:31:18;21.30;;;9.87;;
3543;SDS011;1786;52.870;9.578;2024-03-07T15:33:48;16.43;;;9.20;;
3543;SDS011;1786;52.870;9.578;2024-03-07T15:36:17;16.63;;;9.73;;
3543;SDS011;1786;52.870;9.578;2024-03-07T15:38:44;18.63;;;9.57;;